sensor_id;sensor_type;location;lat;lon;timestamp;P1;durP1;ratioP1;P2;durP2;ratioP2
1507;SDS011;745;48.586;10.032;2024-02-04T00:00:02;1.07;;;1.00;;
1507;SDS011;745;48.586;10.032;2024-02-04T00:02:03;1.40;;;1.30;;
1507;SDS011;745;48.586;10.032;2024-02-04T00:04:04;1.10;;;1.10;;
1507;SDS011;745;48.586;10.032;2024-02-04T00:06:04;3.27;;;1.10;;
1507;SDS011;745;48.586;10.032;2024-02-04T00:08:06;1.08;;;1.00;;
1507;SDS011;745;48.586;10.032;2024-02-04T00:10:06;1.20;;;1.10;;
1507;SDS011;745;48.586;10.032;2024-02-04T00:12:07;1.13;;;1.00;;
1507;SDS011;745;48.586;10.032;2024-02-04T00:14:08;1.30;;;1.17;;
1507;SDS011;745;48.586;10.032;2024-02-04T00:16:09;1.23;;;1.10;;
1507;SDS011;745;48.586;10.032;2024-02-04T00:18:09;1.30;;;1.20;;
1507;SDS011;745;48.586;10.032;2024-02-04T00:20:09;1.13;;;1.00;;
1507;SDS011;745;48.586;10.032;2024-02-04T00:22:10;1.27;;;1.17;;
1507;SDS011;745;48.586;10.032;2024-02-04T00:24:10;0.90;;;0.90;;
1507;SDS011;745;48.586;10.032;2024-02-04T00:26:10;1.10;;;1.10;;
1507;SDS011;745;48.586;10.032;2024-02-04T00:28:11;1.20;;;1.10;;
1507;SDS011;745;48.586;10.032;2024-02-04T00:30:11;1.10;;;1.00;;
1507;SDS011;745;48.586;10.032;2024-02-04T00:32:12;1.20;;;1.10;;
1507;SDS011;745;48.586;10.032;2024-02-04T00:34:12;1.37;;;1.20;;
1507;SDS011;745;48.586;10.032;2024-02-04T00:36:12;3.80;;;3.00;;
1507;SDS011;745;48.586;10.032;2024-02-04T00:38:13;1.93;;;1.80;;
1507;SDS011;745;48.586;10.032;2024-02-04T00:40:13;1.33;;;1.23;;
1507;SDS011;745;48.586;10.032;2024-02-04T00:42:14;1.43;;;1.10;;
1507;SDS011;745;48.586;10.032;2024-02-04T00:44:14;1.90;;;1.70;;
1507;SDS011;745;48.586;10.032;2024-02-04T00:46:14;1.40;;;1.30;;
1507;SDS011;745;48.586;10.032;2024-02-04T00:48:15;2.40;;;1.60;;
1507;SDS011;745;48.586;10.032;2024-02-04T00:50:15;1.10;;;1.00;;
1507;SDS011;745;48.586;10.032;2024-02-04T00:52:15;1.23;;;1.13;;
1507;SDS011;745;48.586;10.032;2024-02-04T00:54:16;1.20;;;1.00;;
1507;SDS011;745;48.586;10.032;2024-02-04T00:56:16;1.27;;;1.17;;
1507;SDS011;745;48.586;10.032;2024-02-04T00:58:16;1.20;;;1.10;;
1507;SDS011;745;48.586;10.032;2024-02-04T01:00:17;1.13;;;1.03;;
1507;SDS011;745;48.586;10.032;2024-02-04T01:02:17;1.20;;;1.10;;
1507;SDS011;745;48.586;10.032;2024-02-04T01:04:18;1.17;;;1.07;;
1507;SDS011;745;48.586;10.032;2024-02-04T01:06:18;1.43;;;1.13;;
1507;SDS011;745;48.586;10.032;2024-02-04T01:08:18;1.03;;;1.03;;
1507;SDS011;745;48.586;10.032;2024-02-04T01:10:19;0.93;;;0.93;;
1507;SDS011;745;48.586;10.032;2024-02-04T01:12:19;1.17;;;1.10;;
1507;SDS011;745;48.586;10.032;2024-02-04T01:14:19;1.00;;;1.00;;
1507;SDS011;745;48.586;10.032;2024-02-04T01:16:20;0.93;;;0.93;;
1507;SDS011;745;48.586;10.032;2024-02-04T01:18:20;1.47;;;1.17;;
1507;SDS011;745;48.586;10.032;2024-02-04T01:20:20;0.97;;;0.97;;
1507;SDS011;745;48.586;10.032;2024-02-04T01:22:21;1.10;;;1.10;;
1507;SDS011;745;48.586;10.032;2024-02-04T01:24:26;1.17;;;1.08;;
1507;SDS011;745;48.586;10.032;2024-02-04T01:26:26;1.13;;;1.03;;
1507;SDS011;745;48.586;10.032;2024-02-04T01:28:26;0.90;;;0.90;;
1507;SDS011;745;48.586;10.032;2024-02-04T01:30:27;1.30;;;1.20;;
1507;SDS011;745;48.586;10.032;2024-02-04T01:32:30;1.10;;;1.00;;
1507;SDS011;745;48.586;10.032;2024-02-04T01:34:30;1.20;;;0.90;;
1507;SDS011;745;48.586;10.032;2024-02-04T01:36:31;0.90;;;0.90;;
1507;SDS011;745;48.586;10.032;2024-02-04T01:38:31;1.10;;;1.10;;
1507;SDS011;745;48.586;10.032;2024-02-04T01:40:31;1.20;;;1.00;;
1507;SDS011;745;48.586;10.032;2024-02-04T01:42:32;0.87;;;0.87;;
1507;SDS011;745;48.586;10.032;2024-02-04T01:44:32;1.20;;;1.10;;
1507;SDS011;745;48.586;10.032;2024-02-04T01:46:32;1.80;;;1.70;;
1507;SDS011;745;48.586;10.032;2024-02-04T01:48:33;2.70;;;2.50;;
1507;SDS011;745;48.586;10.032;2024-02-04T01:50:34;1.30;;;1.20;;
1507;SDS011;745;48.586;10.032;2024-02-04T01:52:35;1.20;;;1.10;;
1507;SDS011;745;48.586;10.032;2024-02-04T01:54:36;0.90;;;0.90;;
1507;SDS011;745;48.586;10.032;2024-02-04T01:56:38;1.05;;;1.00;;
1507;SDS011;745;48.586;10.032;2024-02-04T01:58:38;0.83;;;0.83;;
1507;SDS011;745;48.586;10.032;2024-02-04T02:00:39;0.80;;;0.80;;
1507;SDS011;745;48.586;10.032;2024-02-04T02:02:40;0.90;;;0.90;;
1507;SDS011;745;48.586;10.032;2024-02-04T02:04:41;1.53;;;0.90;;
1507;SDS011;745;48.586;10.032;2024-02-04T02:06:42;0.90;;;0.90;;
1507;SDS011;745;48.586;10.032;2024-02-04T02:08:43;1.08;;;0.90;;
1507;SDS011;745;48.586;10.032;2024-02-04T02:10:44;0.90;;;0.90;;
1507;SDS011;745;48.586;10.032;2024-02-04T02:12:48;1.00;;;1.00;;
1507;SDS011;745;48.586;10.032;2024-02-04T02:14:59;0.80;;;0.80;;
1507;SDS011;745;48.586;10.032;2024-02-04T02:17:05;0.90;;;0.90;;
1507;SDS011;745;48.586;10.032;2024-02-04T02:25:59;0.80;;;0.80;;
1507;SDS011;745;48.586;10.032;2024-02-04T02:27:59;1.13;;;1.03;;
1507;SDS011;745;48.586;10.032;2024-02-04T02:30:00;0.90;;;0.90;;
1507;SDS011;745;48.586;10.032;2024-02-04T02:32:00;0.80;;;0.80;;
1507;SDS011;745;48.586;10.032;2024-02-04T02:34:01;0.90;;;0.90;;
1507;SDS011;745;48.586;10.032;2024-02-04T02:36:02;0.93;;;0.90;;
1507;SDS011;745;48.586;10.032;2024-02-04T02:38:26;0.90;;;0.90;;
1507;SDS011;745;48.586;10.032;2024-02-04T02:40:51;0.90;;;0.90;;
1507;SDS011;745;48.586;10.032;2024-02-04T02:42:59;0.90;;;0.90;;
1507;SDS011;745;48.586;10.032;2024-02-04T02:45:02;0.90;;;0.90;;
1507;SDS011;745;48.586;10.032;2024-02-04T02:47:03;0.90;;;0.90;;
1507;SDS011;745;48.586;10.032;2024-02-04T02:49:05;0.80;;;0.80;;
1507;SDS011;745;48.586;10.032;2024-02-04T02:51:05;1.57;;;0.90;;
1507;SDS011;745;48.586;10.032;2024-02-04T02:53:06;0.80;;;0.80;;
1507;SDS011;745;48.586;10.032;2024-02-04T02:55:06;0.90;;;0.90;;
1507;SDS011;745;48.586;10.032;2024-02-04T02:57:06;1.10;;;1.00;;
1507;SDS011;745;48.586;10.032;2024-02-04T02:59:07;0.90;;;0.90;;
1507;SDS011;745;48.586;10.032;2024-02-04T03:01:08;1.00;;;0.93;;
1507;SDS011;745;48.586;10.032;2024-02-04T03:03:08;0.90;;;0.90;;
1507;SDS011;745;48.586;10.032;2024-02-04T03:05:08;0.80;;;0.80;;
1507;SDS011;745;48.586;10.032;2024-02-04T03:07:09;0.97;;;0.97;;
1507;SDS011;745;48.586;10.032;2024-02-04T03:09:10;1.10;;;1.00;;
1507;SDS011;745;48.586;10.032;2024-02-04T03:11:11;0.80;;;0.80;;
1507;SDS011;745;48.586;10.032;2024-02-04T03:13:11;0.90;;;0.90;;
1507;SDS011;745;48.586;10.032;2024-02-04T03:15:12;1.00;;;1.00;;
1507;SDS011;745;48.586;10.032;2024-02-04T03:17:12;1.10;;;1.00;;
1507;SDS011;745;48.586;10.032;2024-02-04T03:19:13;1.10;;;1.00;;
1507;SDS011;745;48.586;10.032;2024-02-04T03:21:14;0.90;;;0.90;;
1507;SDS011;745;48.586;10.032;2024-02-04T03:23:15;1.67;;;0.98;;
1507;SDS011;745;48.586;10.032;2024-02-04T03:25:15;0.90;;;0.90;;
1507;SDS011;745;48.586;10.032;2024-02-04T03:27:16;1.00;;;1.00;;
1507;SDS011;745;48.586;10.032;2024-02-04T03:29:17;1.05;;;1.00;;
1507;SDS011;745;48.586;10.032;2024-02-04T03:31:21;0.90;;;0.90;;
1507;SDS011;745;48.586;10.032;2024-02-04T03:33:24;1.10;;;1.00;;
1507;SDS011;745;48.586;10.032;2024-02-04T03:35:24;0.90;;;0.90;;
1507;SDS011;745;48.586;10.032;2024-02-04T03:37:24;1.07;;;0.97;;
1507;SDS011;745;48.586;10.032;2024-02-04T03:39:25;1.00;;;0.90;;
1507;SDS011;745;48.586;10.032;2024-02-04T03:41:26;0.90;;;0.90;;
1507;SDS011;745;48.586;10.032;2024-02-04T03:43:26;0.90;;;0.90;;
1507;SDS011;745;48.586;10.032;2024-02-04T03:45:26;1.60;;;1.07;;
1507;SDS011;745;48.586;10.032;2024-02-04T03:47:27;0.90;;;0.90;;
1507;SDS011;745;48.586;10.032;2024-02-04T03:49:27;1.03;;;0.97;;
1507;SDS011;745;48.586;10.032;2024-02-04T03:51:27;1.20;;;1.10;;
1507;SDS011;745;48.586;10.032;2024-02-04T03:53:28;1.10;;;1.00;;
1507;SDS011;745;48.586;10.032;2024-02-04T03:55:28;1.13;;;1.03;;
1507;SDS011;745;48.586;10.032;2024-02-04T03:57:29;1.10;;;1.10;;
1507;SDS011;745;48.586;10.032;2024-02-04T03:59:29;1.23;;;1.13;;
1507;SDS011;745;48.586;10.032;2024-02-04T04:01:29;1.20;;;1.10;;
1507;SDS011;745;48.586;10.032;2024-02-04T04:03:30;1.00;;;1.00;;
1507;SDS011;745;48.586;10.032;2024-02-04T04:05:30;1.00;;;1.00;;
1507;SDS011;745;48.586;10.032;2024-02-04T04:07:30;1.40;;;1.30;;
1507;SDS011;745;48.586;10.032;2024-02-04T04:09:31;1.27;;;1.17;;
1507;SDS011;745;48.586;10.032;2024-02-04T04:11:32;1.10;;;1.00;;
1507;SDS011;745;48.586;10.032;2024-02-04T04:13:32;1.70;;;1.25;;
1507;SDS011;745;48.586;10.032;2024-02-04T04:15:34;1.35;;;1.25;;
1507;SDS011;745;48.586;10.032;2024-02-04T04:17:35;1.30;;;1.20;;
1507;SDS011;745;48.586;10.032;2024-02-04T04:19:35;1.20;;;1.10;;
1507;SDS011;745;48.586;10.032;2024-02-04T04:21:37;0.90;;;0.90;;
1507;SDS011;745;48.586;10.032;2024-02-04T04:23:37;1.20;;;1.10;;
1507;SDS011;745;48.586;10.032;2024-02-04T04:25:38;1.30;;;1.20;;
1507;SDS011;745;48.586;10.032;2024-02-04T04:27:38;1.10;;;1.00;;
1507;SDS011;745;48.586;10.032;2024-02-04T04:29:38;1.10;;;1.00;;
1507;SDS011;745;48.586;10.032;2024-02-04T04:31:39;1.20;;;1.10;;
1507;SDS011;745;48.586;10.032;2024-02-04T04:33:39;1.10;;;1.10;;
1507;SDS011;745;48.586;10.032;2024-02-04T04:35:40;1.20;;;1.10;;
1507;SDS011;745;48.586;10.032;2024-02-04T04:37:40;1.30;;;1.20;;
1507;SDS011;745;48.586;10.032;2024-02-04T04:39:40;1.30;;;1.20;;
1507;SDS011;745;48.586;10.032;2024-02-04T04:41:41;1.37;;;1.27;;
1507;SDS011;745;48.586;10.032;2024-02-04T04:43:43;1.20;;;1.10;;
1507;SDS011;745;48.586;10.032;2024-02-04T04:45:43;1.30;;;1.20;;
1507;SDS011;745;48.586;10.032;2024-02-04T04:47:44;0.90;;;0.90;;
1507;SDS011;745;48.586;10.032;2024-02-04T04:49:44;1.17;;;1.07;;
1507;SDS011;745;48.586;10.032;2024-02-04T04:51:45;1.10;;;1.10;;
1507;SDS011;745;48.586;10.032;2024-02-04T04:53:48;1.30;;;1.20;;
1507;SDS011;745;48.586;10.032;2024-02-04T04:55:48;1.40;;;1.30;;
1507;SDS011;745;48.586;10.032;2024-02-04T04:57:49;1.27;;;1.17;;
1507;SDS011;745;48.586;10.032;2024-02-04T04:59:49;0.90;;;0.90;;
1507;SDS011;745;48.586;10.032;2024-02-04T05:01:49;1.40;;;1.30;;
1507;SDS011;745;48.586;10.032;2024-02-04T05:03:50;1.30;;;1.20;;
1507;SDS011;745;48.586;10.032;2024-02-04T05:05:50;1.50;;;1.40;;
1507;SDS011;745;48.586;10.032;2024-02-04T05:07:50;1.40;;;1.30;;
1507;SDS011;745;48.586;10.032;2024-02-04T05:09:50;1.20;;;1.10;;
1507;SDS011;745;48.586;10.032;2024-02-04T05:11:51;1.20;;;1.10;;
1507;SDS011;745;48.586;10.032;2024-02-04T05:13:51;1.83;;;1.50;;
1507;SDS011;745;48.586;10.032;2024-02-04T05:15:51;1.40;;;1.20;;
1507;SDS011;745;48.586;10.032;2024-02-04T05:17:52;1.30;;;1.20;;
1507;SDS011;745;48.586;10.032;2024-02-04T05:19:52;1.30;;;1.20;;
1507;SDS011;745;48.586;10.032;2024-02-04T05:21:53;1.80;;;1.70;;
1507;SDS011;745;48.586;10.032;2024-02-04T05:23:53;1.27;;;1.17;;
1507;SDS011;745;48.586;10.032;2024-02-04T05:25:53;1.37;;;1.27;;
1507;SDS011;745;48.586;10.032;2024-02-04T05:27:53;1.27;;;1.17;;
1507;SDS011;745;48.586;10.032;2024-02-04T05:29:54;2.00;;;1.60;;
1507;SDS011;745;48.586;10.032;2024-02-04T05:31:54;1.40;;;1.30;;
1507;SDS011;745;48.586;10.032;2024-02-04T05:33:55;1.50;;;1.40;;
1507;SDS011;745;48.586;10.032;2024-02-04T05:35:56;1.20;;;1.10;;
1507;SDS011;745;48.586;10.032;2024-02-04T05:37:56;1.47;;;1.37;;
1507;SDS011;745;48.586;10.032;2024-02-04T05:39:56;1.20;;;1.10;;
1507;SDS011;745;48.586;10.032;2024-02-04T05:41:57;1.50;;;1.40;;
1507;SDS011;745;48.586;10.032;2024-02-04T05:43:57;1.17;;;1.07;;
1507;SDS011;745;48.586;10.032;2024-02-04T05:45:57;1.30;;;1.20;;
1507;SDS011;745;48.586;10.032;2024-02-04T05:47:58;1.80;;;1.47;;
1507;SDS011;745;48.586;10.032;2024-02-04T05:49:59;1.47;;;1.30;;
1507;SDS011;745;48.586;10.032;2024-02-04T05:51:59;1.70;;;1.30;;
1507;SDS011;745;48.586;10.032;2024-02-04T05:53:59;1.63;;;1.53;;
1507;SDS011;745;48.586;10.032;2024-02-04T05:56:00;3.27;;;2.80;;
1507;SDS011;745;48.586;10.032;2024-02-04T05:58:00;2.70;;;2.50;;
1507;SDS011;745;48.586;10.032;2024-02-04T06:00:00;8.33;;;6.40;;
1507;SDS011;745;48.586;10.032;2024-02-04T06:02:00;7.07;;;5.53;;
1507;SDS011;745;48.586;10.032;2024-02-04T06:04:01;8.10;;;6.53;;
1507;SDS011;745;48.586;10.032;2024-02-04T06:06:02;7.80;;;5.73;;
1507;SDS011;745;48.586;10.032;2024-02-04T06:08:02;6.00;;;4.63;;
1507;SDS011;745;48.586;10.032;2024-02-04T06:10:03;6.40;;;4.60;;
1507;SDS011;745;48.586;10.032;2024-02-04T06:12:03;6.73;;;4.37;;
1507;SDS011;745;48.586;10.032;2024-02-04T06:14:06;6.20;;;4.50;;
1507;SDS011;745;48.586;10.032;2024-02-04T06:16:06;9.93;;;5.80;;
1507;SDS011;745;48.586;10.032;2024-02-04T06:18:07;8.83;;;5.43;;
1507;SDS011;745;48.586;10.032;2024-02-04T06:20:07;13.50;;;7.87;;
1507;SDS011;745;48.586;10.032;2024-02-04T06:22:09;6.60;;;4.20;;
1507;SDS011;745;48.586;10.032;2024-02-04T06:24:09;9.63;;;4.00;;
1507;SDS011;745;48.586;10.032;2024-02-04T06:26:09;8.67;;;4.80;;
1507;SDS011;745;48.586;10.032;2024-02-04T06:28:10;25.10;;;11.63;;
1507;SDS011;745;48.586;10.032;2024-02-04T06:30:10;22.73;;;9.23;;
1507;SDS011;745;48.586;10.032;2024-02-04T06:32:11;10.27;;;5.30;;
1507;SDS011;745;48.586;10.032;2024-02-04T06:34:13;14.20;;;7.03;;
1507;SDS011;745;48.586;10.032;2024-02-04T06:36:13;20.07;;;10.03;;
1507;SDS011;745;48.586;10.032;2024-02-04T06:38:14;16.53;;;7.17;;
1507;SDS011;745;48.586;10.032;2024-02-04T06:40:14;17.60;;;8.67;;
1507;SDS011;745;48.586;10.032;2024-02-04T06:42:14;21.73;;;10.40;;
1507;SDS011;745;48.586;10.032;2024-02-04T06:44:15;9.80;;;4.67;;
1507;SDS011;745;48.586;10.032;2024-02-04T06:46:23;5.57;;;2.67;;
1507;SDS011;745;48.586;10.032;2024-02-04T06:48:26;7.00;;;4.20;;
1507;SDS011;745;48.586;10.032;2024-02-04T06:50:27;14.53;;;6.77;;
1507;SDS011;745;48.586;10.032;2024-02-04T06:52:27;19.53;;;7.47;;
1507;SDS011;745;48.586;10.032;2024-02-04T06:54:27;8.30;;;4.03;;
1507;SDS011;745;48.586;10.032;2024-02-04T06:56:28;9.30;;;5.07;;
1507;SDS011;745;48.586;10.032;2024-02-04T06:58:28;9.30;;;5.77;;
1507;SDS011;745;48.586;10.032;2024-02-04T07:00:28;3.03;;;2.23;;
1507;SDS011;745;48.586;10.032;2024-02-04T07:02:28;7.17;;;4.47;;
1507;SDS011;745;48.586;10.032;2024-02-04T07:04:29;5.27;;;4.23;;
1507;SDS011;745;48.586;10.032;2024-02-04T07:06:29;12.13;;;8.37;;
1507;SDS011;745;48.586;10.032;2024-02-04T07:08:29;8.80;;;7.13;;
1507;SDS011;745;48.586;10.032;2024-02-04T07:10:30;2.70;;;2.50;;
1507;SDS011;745;48.586;10.032;2024-02-04T07:12:30;2.30;;;1.87;;
1507;SDS011;745;48.586;10.032;2024-02-04T07:14:30;2.00;;;1.80;;
1507;SDS011;745;48.586;10.032;2024-02-04T07:16:31;2.83;;;2.10;;
1507;SDS011;745;48.586;10.032;2024-02-04T07:18:32;6.00;;;4.25;;
1507;SDS011;745;48.586;10.032;2024-02-04T07:20:32;6.50;;;5.00;;
1507;SDS011;745;48.586;10.032;2024-02-04T07:22:32;4.00;;;2.77;;
1507;SDS011;745;48.586;10.032;2024-02-04T07:24:34;5.88;;;4.00;;
1507;SDS011;745;48.586;10.032;2024-02-04T07:26:35;6.23;;;4.93;;
1507;SDS011;745;48.586;10.032;2024-02-04T07:28:36;2.73;;;2.20;;
1507;SDS011;745;48.586;10.032;2024-02-04T07:30:36;1.83;;;1.73;;
1507;SDS011;745;48.586;10.032;2024-02-04T07:32:37;2.40;;;2.00;;
1507;SDS011;745;48.586;10.032;2024-02-04T07:34:37;8.83;;;5.37;;
1507;SDS011;745;48.586;10.032;2024-02-04T07:36:37;5.27;;;3.83;;
1507;SDS011;745;48.586;10.032;2024-02-04T07:38:38;5.07;;;3.07;;
1507;SDS011;745;48.586;10.032;2024-02-04T07:40:38;2.30;;;1.90;;
1507;SDS011;745;48.586;10.032;2024-02-04T07:42:38;2.10;;;2.00;;
1507;SDS011;745;48.586;10.032;2024-02-04T07:44:39;3.80;;;3.33;;
1507;SDS011;745;48.586;10.032;2024-02-04T07:46:39;2.10;;;1.90;;
1507;SDS011;745;48.586;10.032;2024-02-04T07:48:40;3.63;;;3.00;;
1507;SDS011;745;48.586;10.032;2024-02-04T07:50:40;2.20;;;1.90;;
1507;SDS011;745;48.586;10.032;2024-02-04T07:52:40;2.17;;;1.93;;
1507;SDS011;745;48.586;10.032;2024-02-04T07:54:40;2.30;;;2.10;;
1507;SDS011;745;48.586;10.032;2024-02-04T07:56:41;2.10;;;1.90;;
1507;SDS011;745;48.586;10.032;2024-02-04T07:58:41;1.30;;;1.20;;
1507;SDS011;745;48.586;10.032;2024-02-04T08:00:41;2.83;;;2.43;;
1507;SDS011;745;48.586;10.032;2024-02-04T08:02:44;3.53;;;1.87;;
1507;SDS011;745;48.586;10.032;2024-02-04T08:04:44;1.50;;;1.40;;
1507;SDS011;745;48.586;10.032;2024-02-04T08:06:44;2.23;;;1.40;;
1507;SDS011;745;48.586;10.032;2024-02-04T08:08:45;1.73;;;1.63;;
1507;SDS011;745;48.586;10.032;2024-02-04T08:10:47;1.30;;;1.20;;
1507;SDS011;745;48.586;10.032;2024-02-04T08:12:48;1.10;;;1.00;;
1507;SDS011;745;48.586;10.032;2024-02-04T08:14:50;1.10;;;1.00;;
1507;SDS011;745;48.586;10.032;2024-02-04T08:16:51;1.53;;;1.43;;
1507;SDS011;745;48.586;10.032;2024-02-04T08:18:51;1.30;;;1.20;;
1507;SDS011;745;48.586;10.032;2024-02-04T08:20:51;1.30;;;1.20;;
1507;SDS011;745;48.586;10.032;2024-02-04T08:22:53;1.80;;;1.60;;
1507;SDS011;745;48.586;10.032;2024-02-04T08:24:54;1.30;;;1.20;;
1507;SDS011;745;48.586;10.032;2024-02-04T08:26:54;1.57;;;1.47;;
1507;SDS011;745;48.586;10.032;2024-02-04T08:28:55;1.30;;;1.20;;
1507;SDS011;745;48.586;10.032;2024-02-04T08:30:55;3.60;;;2.47;;
1507;SDS011;745;48.586;10.032;2024-02-04T08:32:57;1.30;;;1.20;;
1507;SDS011;745;48.586;10.032;2024-02-04T08:34:57;1.55;;;1.45;;
1507;SDS011;745;48.586;10.032;2024-02-04T08:36:57;1.43;;;1.33;;
1507;SDS011;745;48.586;10.032;2024-02-04T08:38:58;3.47;;;2.00;;
1507;SDS011;745;48.586;10.032;2024-02-04T08:40:58;2.27;;;2.00;;
1507;SDS011;745;48.586;10.032;2024-02-04T08:42:58;1.63;;;1.53;;
1507;SDS011;745;48.586;10.032;2024-02-04T08:44:59;3.87;;;1.87;;
1507;SDS011;745;48.586;10.032;2024-02-04T08:46:59;1.30;;;1.20;;
1507;SDS011;745;48.586;10.032;2024-02-04T08:48:59;1.20;;;1.10;;
1507;SDS011;745;48.586;10.032;2024-02-04T08:51:00;1.20;;;1.10;;
1507;SDS011;745;48.586;10.032;2024-02-04T08:53:00;1.20;;;1.10;;
1507;SDS011;745;48.586;10.032;2024-02-04T08:55:00;2.50;;;1.57;;
1507;SDS011;745;48.586;10.032;2024-02-04T08:57:04;1.40;;;1.30;;
1507;SDS011;745;48.586;10.032;2024-02-04T08:59:04;1.83;;;1.10;;
1507;SDS011;745;48.586;10.032;2024-02-04T09:01:06;1.30;;;1.20;;
1507;SDS011;745;48.586;10.032;2024-02-04T09:03:06;1.50;;;1.40;;
1507;SDS011;745;48.586;10.032;2024-02-04T09:05:07;1.20;;;1.10;;
1507;SDS011;745;48.586;10.032;2024-02-04T09:07:08;2.50;;;1.20;;
1507;SDS011;745;48.586;10.032;2024-02-04T09:09:08;1.23;;;1.13;;
1507;SDS011;745;48.586;10.032;2024-02-04T09:11:09;1.47;;;1.30;;
1507;SDS011;745;48.586;10.032;2024-02-04T09:13:09;1.10;;;1.00;;
1507;SDS011;745;48.586;10.032;2024-02-04T09:15:09;1.30;;;1.20;;
1507;SDS011;745;48.586;10.032;2024-02-04T09:17:10;1.47;;;1.10;;
1507;SDS011;745;48.586;10.032;2024-02-04T09:19:10;1.20;;;1.10;;
1507;SDS011;745;48.586;10.032;2024-02-04T09:21:11;1.20;;;1.10;;
1507;SDS011;745;48.586;10.032;2024-02-04T09:23:11;1.40;;;1.10;;
1507;SDS011;745;48.586;10.032;2024-02-04T09:25:12;1.40;;;1.30;;
1507;SDS011;745;48.586;10.032;2024-02-04T09:27:12;1.47;;;1.37;;
1507;SDS011;745;48.586;10.032;2024-02-04T09:29:12;0.93;;;0.93;;
1507;SDS011;745;48.586;10.032;2024-02-04T09:31:13;1.10;;;1.10;;
1507;SDS011;745;48.586;10.032;2024-02-04T09:33:13;1.10;;;1.00;;
1507;SDS011;745;48.586;10.032;2024-02-04T09:35:14;1.10;;;1.00;;
1507;SDS011;745;48.586;10.032;2024-02-04T09:37:14;1.40;;;1.20;;
1507;SDS011;745;48.586;10.032;2024-02-04T09:39:15;1.20;;;1.10;;
1507;SDS011;745;48.586;10.032;2024-02-04T09:41:15;0.90;;;0.90;;
1507;SDS011;745;48.586;10.032;2024-02-04T09:43:16;1.90;;;1.10;;
1507;SDS011;745;48.586;10.032;2024-02-04T09:45:16;0.90;;;0.90;;
1507;SDS011;745;48.586;10.032;2024-02-04T09:47:17;1.10;;;1.00;;
1507;SDS011;745;48.586;10.032;2024-02-04T09:49:17;0.80;;;0.80;;
1507;SDS011;745;48.586;10.032;2024-02-04T09:51:17;0.90;;;0.90;;
1507;SDS011;745;48.586;10.032;2024-02-04T09:53:20;2.00;;;1.10;;
1507;SDS011;745;48.586;10.032;2024-02-04T09:55:22;0.93;;;0.93;;
1507;SDS011;745;48.586;10.032;2024-02-04T09:57:22;1.90;;;1.60;;
1507;SDS011;745;48.586;10.032;2024-02-04T09:59:23;1.70;;;1.60;;
1507;SDS011;745;48.586;10.032;2024-02-04T10:01:23;0.90;;;0.90;;
1507;SDS011;745;48.586;10.032;2024-02-04T10:03:23;1.73;;;1.00;;
1507;SDS011;745;48.586;10.032;2024-02-04T10:05:24;0.90;;;0.90;;
1507;SDS011;745;48.586;10.032;2024-02-04T10:07:25;0.90;;;0.90;;
1507;SDS011;745;48.586;10.032;2024-02-04T10:09:25;1.00;;;0.90;;
1507;SDS011;745;48.586;10.032;2024-02-04T10:11:25;1.00;;;0.90;;
1507;SDS011;745;48.586;10.032;2024-02-04T10:13:26;1.00;;;0.90;;
1507;SDS011;745;48.586;10.032;2024-02-04T10:15:30;1.23;;;1.00;;
1507;SDS011;745;48.586;10.032;2024-02-04T10:17:30;0.90;;;0.90;;
1507;SDS011;745;48.586;10.032;2024-02-04T10:19:31;1.00;;;0.90;;
1507;SDS011;745;48.586;10.032;2024-02-04T10:21:31;0.90;;;0.83;;
1507;SDS011;745;48.586;10.032;2024-02-04T10:23:32;1.03;;;0.93;;
1507;SDS011;745;48.586;10.032;2024-02-04T10:25:33;1.20;;;1.10;;
1507;SDS011;745;48.586;10.032;2024-02-04T10:27:34;1.10;;;1.00;;
1507;SDS011;745;48.586;10.032;2024-02-04T10:29:34;1.10;;;1.00;;
1507;SDS011;745;48.586;10.032;2024-02-04T10:31:35;1.30;;;1.00;;
1507;SDS011;745;48.586;10.032;2024-02-04T10:33:35;1.00;;;0.90;;
1507;SDS011;745;48.586;10.032;2024-02-04T10:35:36;1.27;;;1.17;;
1507;SDS011;745;48.586;10.032;2024-02-04T10:37:36;1.13;;;1.03;;
1507;SDS011;745;48.586;10.032;2024-02-04T10:39:37;1.13;;;1.03;;
1507;SDS011;745;48.586;10.032;2024-02-04T10:41:37;1.10;;;1.00;;
1507;SDS011;745;48.586;10.032;2024-02-04T10:43:42;1.20;;;1.10;;
1507;SDS011;745;48.586;10.032;2024-02-04T10:45:43;2.97;;;1.50;;
1507;SDS011;745;48.586;10.032;2024-02-04T10:47:44;5.03;;;2.90;;
1507;SDS011;745;48.586;10.032;2024-02-04T10:49:51;1.90;;;1.45;;
1507;SDS011;745;48.586;10.032;2024-02-04T10:51:55;1.30;;;1.20;;
1507;SDS011;745;48.586;10.032;2024-02-04T10:53:56;1.17;;;1.08;;
1507;SDS011;745;48.586;10.032;2024-02-04T10:55:58;1.10;;;1.00;;
1507;SDS011;745;48.586;10.032;2024-02-04T10:58:01;1.00;;;1.00;;
1507;SDS011;745;48.586;10.032;2024-02-04T11:00:05;1.10;;;1.00;;
1507;SDS011;745;48.586;10.032;2024-02-04T11:02:08;3.58;;;1.17;;
1507;SDS011;745;48.586;10.032;2024-02-04T11:04:10;1.08;;;1.00;;
1507;SDS011;745;48.586;10.032;2024-02-04T11:06:11;1.70;;;1.23;;
1507;SDS011;745;48.586;10.032;2024-02-04T11:08:12;1.10;;;1.00;;
1507;SDS011;745;48.586;10.032;2024-02-04T11:10:13;1.90;;;1.70;;
1507;SDS011;745;48.586;10.032;2024-02-04T11:12:14;1.50;;;1.40;;
1507;SDS011;745;48.586;10.032;2024-02-04T11:14:16;1.80;;;1.70;;
1507;SDS011;745;48.586;10.032;2024-02-04T11:23:41;1.25;;;1.15;;
1507;SDS011;745;48.586;10.032;2024-02-04T11:25:56;1.38;;;1.20;;
1507;SDS011;745;48.586;10.032;2024-02-04T11:27:57;1.10;;;1.00;;
1507;SDS011;745;48.586;10.032;2024-02-04T11:29:58;1.30;;;1.20;;
1507;SDS011;745;48.586;10.032;2024-02-04T11:31:58;1.10;;;1.00;;
1507;SDS011;745;48.586;10.032;2024-02-04T11:33:59;1.00;;;0.90;;
1507;SDS011;745;48.586;10.032;2024-02-04T11:36:03;1.27;;;1.00;;
1507;SDS011;745;48.586;10.032;2024-02-04T11:38:04;2.15;;;1.25;;
1507;SDS011;745;48.586;10.032;2024-02-04T11:40:05;0.90;;;0.90;;
1507;SDS011;745;48.586;10.032;2024-02-04T11:42:13;1.20;;;1.10;;
1507;SDS011;745;48.586;10.032;2024-02-04T11:44:24;1.25;;;1.00;;
1507;SDS011;745;48.586;10.032;2024-02-04T11:46:27;1.40;;;1.30;;
1507;SDS011;745;48.586;10.032;2024-02-04T11:48:30;1.30;;;1.20;;
1507;SDS011;745;48.586;10.032;2024-02-04T11:50:31;3.17;;;1.00;;
1507;SDS011;745;48.586;10.032;2024-02-04T11:52:31;1.30;;;1.10;;
1507;SDS011;745;48.586;10.032;2024-02-04T11:54:32;1.30;;;1.20;;
1507;SDS011;745;48.586;10.032;2024-02-04T11:56:32;1.17;;;1.07;;
1507;SDS011;745;48.586;10.032;2024-02-04T11:58:33;1.30;;;1.17;;
1507;SDS011;745;48.586;10.032;2024-02-04T12:00:35;1.20;;;1.05;;
1507;SDS011;745;48.586;10.032;2024-02-04T12:02:36;1.10;;;1.00;;
1507;SDS011;745;48.586;10.032;2024-02-04T12:04:36;1.10;;;1.00;;
1507;SDS011;745;48.586;10.032;2024-02-04T12:06:39;2.22;;;1.40;;
1507;SDS011;745;48.586;10.032;2024-02-04T12:08:40;1.35;;;1.25;;
1507;SDS011;745;48.586;10.032;2024-02-04T12:10:41;1.60;;;1.50;;
1507;SDS011;745;48.586;10.032;2024-02-04T12:12:42;3.27;;;2.70;;
1507;SDS011;745;48.586;10.032;2024-02-04T12:14:42;1.50;;;1.40;;
1507;SDS011;745;48.586;10.032;2024-02-04T12:16:43;2.37;;;1.87;;
1507;SDS011;745;48.586;10.032;2024-02-04T12:18:52;4.93;;;3.03;;
1507;SDS011;745;48.586;10.032;2024-02-04T12:20:52;1.58;;;1.48;;
1507;SDS011;745;48.586;10.032;2024-02-04T12:22:53;1.13;;;1.03;;
1507;SDS011;745;48.586;10.032;2024-02-04T12:24:53;1.30;;;1.20;;
1507;SDS011;745;48.586;10.032;2024-02-04T12:26:54;1.10;;;1.00;;
1507;SDS011;745;48.586;10.032;2024-02-04T12:28:54;2.70;;;1.10;;
1507;SDS011;745;48.586;10.032;2024-02-04T12:30:55;1.38;;;1.02;;
1507;SDS011;745;48.586;10.032;2024-02-04T12:32:59;3.23;;;2.60;;
1507;SDS011;745;48.586;10.032;2024-02-04T12:35:00;1.23;;;1.13;;
1507;SDS011;745;48.586;10.032;2024-02-04T12:37:01;1.53;;;1.30;;
1507;SDS011;745;48.586;10.032;2024-02-04T12:39:01;1.20;;;1.10;;
1507;SDS011;745;48.586;10.032;2024-02-04T12:41:03;0.90;;;0.90;;
1507;SDS011;745;48.586;10.032;2024-02-04T12:43:03;1.33;;;1.00;;
1507;SDS011;745;48.586;10.032;2024-02-04T12:45:04;1.00;;;0.90;;